createdAt,value
2019-02-23T00:00:29.065Z,973.24
2019-02-23T00:01:39.529Z,973.25
2019-02-23T00:02:28.969Z,973.26
2019-02-23T00:03:29.022Z,973.29
2019-02-23T00:04:28.963Z,973.26
2019-02-23T00:05:29.095Z,973.28
2019-02-23T00:06:30.118Z,973.28
2019-02-23T00:07:28.856Z,973.28
2019-02-23T00:08:28.848Z,973.24
2019-02-23T00:09:38.392Z,973.24
2019-02-23T00:10:28.979Z,973.24
2019-02-23T00:11:28.886Z,973.23
2019-02-23T00:12:28.882Z,973.26
2019-02-23T00:13:28.922Z,973.24
2019-02-23T00:14:28.834Z,973.34
2019-02-23T00:15:28.771Z,973.35
2019-02-23T00:16:28.796Z,973.38
2019-02-23T00:17:28.774Z,973.34
2019-02-23T00:18:28.745Z,973.36
2019-02-23T00:19:28.729Z,973.39
2019-02-23T00:20:28.719Z,973.37
2019-02-23T00:21:28.727Z,973.37
2019-02-23T00:22:28.730Z,973.31
2019-02-23T00:23:28.690Z,973.34
2019-02-23T00:24:28.676Z,973.34
2019-02-23T00:25:29.677Z,973.32
2019-02-23T00:26:28.671Z,973.31
2019-02-23T00:27:28.637Z,973.32
2019-02-23T00:28:28.626Z,973.34
2019-02-23T00:29:28.630Z,973.31
2019-02-23T00:30:28.605Z,973.38
2019-02-23T00:31:28.623Z,973.39
2019-02-23T00:32:28.604Z,973.40
2019-02-23T00:33:28.593Z,973.40
2019-02-23T00:34:28.563Z,973.44
2019-02-23T00:35:28.570Z,973.42
2019-02-23T00:36:28.541Z,973.43
2019-02-23T00:37:28.542Z,973.41
2019-02-23T00:38:28.554Z,973.43
2019-02-23T00:39:28.516Z,973.44
2019-02-23T00:40:28.517Z,973.49
2019-02-23T00:41:28.487Z,973.48
2019-02-23T00:42:28.503Z,973.45
2019-02-23T00:43:28.461Z,973.46
2019-02-23T00:44:37.171Z,973.42
2019-02-23T00:45:28.547Z,973.37
2019-02-23T00:46:28.519Z,973.33
2019-02-23T00:47:28.498Z,973.35
2019-02-23T00:48:28.585Z,973.41
2019-02-23T00:49:35.870Z,973.46
2019-02-23T00:50:29.444Z,973.47
2019-02-23T00:51:28.413Z,973.48
2019-02-23T00:52:28.360Z,973.44
2019-02-23T00:53:28.393Z,973.45
2019-02-23T00:54:28.354Z,973.38
2019-02-23T00:55:28.364Z,973.43
2019-02-23T00:56:28.332Z,973.38
2019-02-23T00:57:28.310Z,973.38
2019-02-23T00:58:28.306Z,973.43
2019-02-23T00:59:28.303Z,973.39
2019-02-23T01:00:28.275Z,973.38
2019-02-23T01:01:28.390Z,973.35
2019-02-23T01:02:28.262Z,973.34
2019-02-23T01:03:28.245Z,973.38
2019-02-23T01:04:28.259Z,973.42
2019-02-23T01:05:28.249Z,973.41
2019-02-23T01:06:28.290Z,973.37
2019-02-23T01:07:28.201Z,973.41
2019-02-23T01:08:28.214Z,973.42
2019-02-23T01:09:28.190Z,973.43
2019-02-23T01:10:28.199Z,973.40
2019-02-23T01:11:28.162Z,973.44
2019-02-23T01:12:28.150Z,973.42
2019-02-23T01:13:28.129Z,973.49
2019-02-23T01:14:28.175Z,973.53
2019-02-23T01:15:28.143Z,973.50
2019-02-23T01:16:28.101Z,973.54
2019-02-23T01:17:28.095Z,973.55
2019-02-23T01:18:28.081Z,973.51
2019-02-23T01:19:28.071Z,973.49
2019-02-23T01:20:28.073Z,973.50
2019-02-23T01:21:28.082Z,973.44
2019-02-23T01:22:28.048Z,973.44
2019-02-23T01:23:28.026Z,973.45
2019-02-23T01:24:28.085Z,973.40
2019-02-23T01:25:28.011Z,973.34
2019-02-23T01:26:28.022Z,973.38
2019-02-23T01:27:27.989Z,973.34
2019-02-23T01:28:28.036Z,973.36
2019-02-23T01:29:27.965Z,973.39
2019-02-23T01:30:27.955Z,973.38
2019-02-23T01:31:27.938Z,973.41
2019-02-23T01:32:27.943Z,973.49
2019-02-23T01:33:27.922Z,973.54
2019-02-23T01:34:27.914Z,973.59
2019-02-23T01:35:27.929Z,973.58
2019-02-23T01:36:27.890Z,973.58
2019-02-23T01:37:27.889Z,973.58
2019-02-23T01:38:27.890Z,973.56
2019-02-23T01:39:27.855Z,973.57
2019-02-23T01:40:27.847Z,973.57
2019-02-23T01:41:27.832Z,973.55
2019-02-23T01:42:27.887Z,973.51
2019-02-23T01:43:27.809Z,973.56
2019-02-23T01:44:27.800Z,973.58
2019-02-23T01:45:27.873Z,973.55
2019-02-23T01:46:27.784Z,973.59
2019-02-23T01:47:27.761Z,973.61
2019-02-23T01:48:27.769Z,973.59
2019-02-23T01:49:27.754Z,973.54
2019-02-23T01:50:27.739Z,973.54
2019-02-23T01:51:27.746Z,973.55
2019-02-23T01:52:27.707Z,973.51
2019-02-23T01:53:27.728Z,973.45
2019-02-23T01:54:27.688Z,973.44
2019-02-23T01:55:27.678Z,973.40
2019-02-23T01:56:27.670Z,973.34
2019-02-23T01:57:27.656Z,973.33
2019-02-23T01:58:27.654Z,973.36
2019-02-23T01:59:27.681Z,973.32
2019-02-23T02:00:28.619Z,973.29
2019-02-23T02:01:27.624Z,973.26
2019-02-23T02:02:27.601Z,973.28
2019-02-23T02:03:27.592Z,973.29
2019-02-23T02:04:27.610Z,973.26
2019-02-23T02:05:27.662Z,973.30
2019-02-23T02:06:27.565Z,973.24
2019-02-23T02:07:27.626Z,973.29
2019-02-23T02:08:27.543Z,973.23
2019-02-23T02:09:27.562Z,973.25
2019-02-23T02:10:27.517Z,973.22
2019-02-23T02:11:27.519Z,973.19
2019-02-23T02:12:27.503Z,973.15
2019-02-23T02:13:27.526Z,973.15
2019-02-23T02:14:27.474Z,973.17
2019-02-23T02:15:27.472Z,973.12
2019-02-23T02:16:27.455Z,973.06
2019-02-23T02:17:27.440Z,973.02
2019-02-23T02:18:27.419Z,973.04
2019-02-23T02:19:27.426Z,972.98
2019-02-23T02:20:27.488Z,972.93
2019-02-23T02:21:27.390Z,972.93
2019-02-23T02:22:27.383Z,972.91
2019-02-23T02:23:27.387Z,972.89
2019-02-23T02:24:27.375Z,972.81
2019-02-23T02:25:27.346Z,972.84
2019-02-23T02:26:27.341Z,972.87
2019-02-23T02:27:27.328Z,972.82
2019-02-23T02:28:27.358Z,972.83
2019-02-23T02:29:27.304Z,972.88
2019-02-23T02:30:27.940Z,972.85
2019-02-23T02:31:27.305Z,972.85
2019-02-23T02:32:27.271Z,972.84
2019-02-23T02:33:27.276Z,972.78
2019-02-23T02:34:27.262Z,972.74
2019-02-23T02:35:27.264Z,972.73
2019-02-23T02:36:27.531Z,972.73
2019-02-23T02:37:27.249Z,972.69
2019-02-23T02:38:27.216Z,972.73
2019-02-23T02:39:27.207Z,972.73
2019-02-23T02:40:27.218Z,972.69
2019-02-23T02:41:27.188Z,972.68
2019-02-23T02:42:27.173Z,972.70
2019-02-23T02:43:27.159Z,972.69
2019-02-23T02:44:27.159Z,972.68
2019-02-23T02:45:27.939Z,972.65
2019-02-23T02:46:27.121Z,972.63
2019-02-23T02:47:36.891Z,972.62
2019-02-23T02:48:27.190Z,972.63
2019-02-23T02:49:27.121Z,972.58
2019-02-23T02:50:27.118Z,972.57
2019-02-23T02:51:27.142Z,972.63
2019-02-23T02:52:27.127Z,972.59
2019-02-23T02:53:27.981Z,972.60
2019-02-23T02:54:27.036Z,972.64
2019-02-23T02:55:27.049Z,972.59
2019-02-23T02:56:27.013Z,972.62
2019-02-23T02:57:27.016Z,972.60
2019-02-23T02:58:27.058Z,972.56
2019-02-23T02:59:26.977Z,972.58
2019-02-23T03:00:27.028Z,972.63
2019-02-23T03:01:26.967Z,972.61
2019-02-23T03:02:26.946Z,972.62
2019-02-23T03:03:26.980Z,972.60
2019-02-23T03:04:26.940Z,972.64
2019-02-23T03:05:26.910Z,972.68
2019-02-23T03:06:26.907Z,972.72
2019-02-23T03:07:26.886Z,972.77
2019-02-23T03:08:26.878Z,972.78
2019-02-23T03:09:27.004Z,972.76
2019-02-23T03:10:27.420Z,972.72
2019-02-23T03:11:26.851Z,972.63
2019-02-23T03:12:26.831Z,972.65
2019-02-23T03:13:26.827Z,972.65
2019-02-23T03:14:26.952Z,972.66
2019-02-23T03:15:27.462Z,972.60
2019-02-23T03:16:26.798Z,972.60
2019-02-23T03:17:26.777Z,972.54
2019-02-23T03:18:26.770Z,972.57
2019-02-23T03:19:26.760Z,972.56
2019-02-23T03:20:36.295Z,972.53
2019-02-23T03:21:27.767Z,972.55
2019-02-23T03:22:26.751Z,972.57
2019-02-23T03:23:26.721Z,972.70
2019-02-23T03:24:26.709Z,972.73
2019-02-23T03:25:26.695Z,972.79
2019-02-23T03:26:26.696Z,972.80
2019-02-23T03:27:26.685Z,972.73
2019-02-23T03:28:26.745Z,972.74
2019-02-23T03:29:26.659Z,972.73
2019-02-23T03:30:26.838Z,972.75
2019-02-23T03:31:26.654Z,972.80
2019-02-23T03:32:26.631Z,972.78
2019-02-23T03:33:26.616Z,972.79
2019-02-23T03:34:26.633Z,972.78
2019-02-23T03:35:26.587Z,972.79
2019-02-23T03:36:26.574Z,972.81
2019-02-23T03:37:26.572Z,972.78
2019-02-23T03:38:26.557Z,972.69
2019-02-23T03:39:37.847Z,972.71
2019-02-23T03:40:26.566Z,972.71
2019-02-23T03:41:27.500Z,972.71
2019-02-23T03:42:27.584Z,972.65
2019-02-23T03:43:35.282Z,972.73
2019-02-23T03:44:28.064Z,972.74
2019-02-23T03:45:26.529Z,972.73
2019-02-23T03:46:37.965Z,972.74
2019-02-23T03:47:37.199Z,972.75
2019-02-23T03:48:27.165Z,972.78
2019-02-23T03:49:26.446Z,972.87
2019-02-23T03:50:48.744Z,972.88
2019-02-23T03:51:27.476Z,972.82
2019-02-23T03:52:26.412Z,972.85
2019-02-23T03:53:26.449Z,972.86
2019-02-23T03:54:27.192Z,972.85
2019-02-23T03:55:26.521Z,972.91
2019-02-23T03:56:26.391Z,972.87
2019-02-23T03:57:26.342Z,972.88
2019-02-23T03:58:28.662Z,972.90
2019-02-23T03:59:26.321Z,972.89
2019-02-23T04:00:26.411Z,972.88
2019-02-23T04:01:26.485Z,972.85
2019-02-23T04:02:26.312Z,972.86
2019-02-23T04:03:26.280Z,972.83
2019-02-23T04:04:28.148Z,972.76
2019-02-23T04:05:26.253Z,972.76
2019-02-23T04:06:26.256Z,972.73
2019-02-23T04:07:26.322Z,972.70
2019-02-23T04:08:26.227Z,972.72
2019-02-23T04:09:26.244Z,972.67
2019-02-23T04:10:36.066Z,972.72
2019-02-23T04:11:37.363Z,972.74
2019-02-23T04:12:26.275Z,972.76
2019-02-23T04:13:40.845Z,972.80
2019-02-23T04:14:37.121Z,972.80
2019-02-23T04:15:26.214Z,972.84
2019-02-23T04:16:36.145Z,972.90
2019-02-23T04:17:26.234Z,972.89
2019-02-23T04:18:35.628Z,972.93
2019-02-23T04:20:37.530Z,972.89
2019-02-23T04:22:48.875Z,972.81
2019-02-23T04:23:48.724Z,972.80
2019-02-23T04:24:48.784Z,972.83
2019-02-23T04:25:48.865Z,972.78
2019-02-23T04:26:48.802Z,972.76
2019-02-23T04:27:48.650Z,972.72
2019-02-23T04:28:48.624Z,972.64
2019-02-23T04:29:49.299Z,972.63
2019-02-23T04:30:48.625Z,972.63
2019-02-23T04:31:48.582Z,972.64
2019-02-23T04:32:48.615Z,972.61
2019-02-23T04:33:58.489Z,972.64
2019-02-23T04:34:48.642Z,972.70
2019-02-23T04:35:48.562Z,972.83
2019-02-23T04:36:48.620Z,972.78
2019-02-23T04:37:49.395Z,972.79
2019-02-23T04:38:48.647Z,972.80
2019-02-23T04:39:48.515Z,972.77
2019-02-23T04:40:48.486Z,972.76
2019-02-23T04:41:59.408Z,972.76
2019-02-23T04:42:48.554Z,972.75
2019-02-23T04:43:48.522Z,972.71
2019-02-23T04:44:48.498Z,972.69
2019-02-23T04:45:48.583Z,972.70
2019-02-23T04:46:50.416Z,972.77
2019-02-23T04:47:48.410Z,972.70
2019-02-23T04:48:58.333Z,972.67
2019-02-23T04:49:48.442Z,972.60
2019-02-23T04:50:59.559Z,972.59
2019-02-23T04:51:48.470Z,972.58
2019-02-23T04:52:48.495Z,972.61
2019-02-23T04:53:48.458Z,972.66
2019-02-23T04:56:01.063Z,972.59
2019-02-23T04:57:01.894Z,972.54
2019-02-23T04:58:11.747Z,972.59
2019-02-23T04:59:10.416Z,972.64
2019-02-23T05:00:01.441Z,972.56
2019-02-23T05:01:01.813Z,972.56
2019-02-23T05:02:00.795Z,972.51
2019-02-23T05:03:00.778Z,972.50
2019-02-23T05:04:12.178Z,972.58
2019-02-23T05:05:00.836Z,972.52
2019-02-23T05:06:00.817Z,972.57
2019-02-23T05:07:00.793Z,972.59
2019-02-23T05:08:09.455Z,972.56
2019-02-23T05:09:00.888Z,972.54
2019-02-23T05:10:00.782Z,972.52
2019-02-23T05:11:00.747Z,972.56
2019-02-23T05:12:00.790Z,972.55
2019-02-23T05:13:00.736Z,972.51
2019-02-23T05:14:00.806Z,972.52
2019-02-23T05:15:09.562Z,972.50
2019-02-23T05:16:00.733Z,972.52
2019-02-23T05:17:01.555Z,972.42
2019-02-23T05:18:14.725Z,972.47
2019-02-23T05:19:01.773Z,972.37
2019-02-23T05:20:11.162Z,972.34
2019-02-23T05:21:11.420Z,972.30
2019-02-23T05:23:14.728Z,972.17
2019-02-23T05:24:14.594Z,972.20
2019-02-23T05:25:25.357Z,972.16
2019-02-23T05:26:14.560Z,972.17
2019-02-23T05:27:14.535Z,972.18
2019-02-23T05:29:33.147Z,972.19
2019-02-23T05:31:44.379Z,972.23
2019-02-23T05:32:54.321Z,972.27
2019-02-23T05:33:44.994Z,972.25
2019-02-23T05:34:53.725Z,972.20
2019-02-23T05:35:44.203Z,972.26
2019-02-23T05:36:44.192Z,972.25
2019-02-23T05:37:44.183Z,972.23
2019-02-23T05:38:44.152Z,972.20
2019-02-23T05:40:57.892Z,972.22
2019-02-23T05:43:09.157Z,972.14
2019-02-23T05:45:25.060Z,972.21
2019-02-23T05:46:25.465Z,972.25
2019-02-23T05:47:24.916Z,972.30
2019-02-23T05:48:35.544Z,972.32
2019-02-23T05:49:37.002Z,972.32
2019-02-23T05:50:24.879Z,972.35
2019-02-23T05:51:24.827Z,972.30
2019-02-23T05:52:34.168Z,972.35
2019-02-23T05:54:36.071Z,972.48
2019-02-23T05:56:47.464Z,972.44
2019-02-23T05:57:47.309Z,972.41
2019-02-23T05:58:47.260Z,972.44
2019-02-23T05:59:47.250Z,972.42
2019-02-23T06:00:47.329Z,972.43
2019-02-23T06:01:47.292Z,972.45
2019-02-23T06:02:47.264Z,972.44
2019-02-23T06:03:47.238Z,972.41
2019-02-23T06:04:47.298Z,972.42
2019-02-23T06:05:47.169Z,972.40
2019-02-23T06:06:47.138Z,972.47
2019-02-23T06:07:48.989Z,972.48
2019-02-23T06:08:47.139Z,972.55
2019-02-23T06:09:47.107Z,972.54
2019-02-23T06:10:55.794Z,972.56
2019-02-23T06:11:47.158Z,972.56
2019-02-23T06:12:47.101Z,972.65
2019-02-23T06:13:47.117Z,972.63
2019-02-23T06:14:47.103Z,972.58
2019-02-23T06:15:47.102Z,972.63
2019-02-23T06:16:47.073Z,972.65
2019-02-23T06:17:47.024Z,972.70
2019-02-23T06:18:47.049Z,972.71
2019-02-23T06:19:47.056Z,972.75
2019-02-23T06:20:47.550Z,972.79
2019-02-23T06:21:53.499Z,972.80
2019-02-23T06:22:48.022Z,972.82
2019-02-23T06:23:47.013Z,972.68
2019-02-23T06:24:55.641Z,972.74
2019-02-23T06:25:56.885Z,972.70
2019-02-23T06:27:58.308Z,972.77
2019-02-23T06:28:58.172Z,972.83
2019-02-23T06:29:58.221Z,972.87
2019-02-23T06:31:09.412Z,972.88
2019-02-23T06:32:06.845Z,972.86
2019-02-23T06:32:58.150Z,972.85
2019-02-23T06:34:15.409Z,972.85
2019-02-23T06:36:11.381Z,972.82
2019-02-23T06:37:11.285Z,972.79
2019-02-23T06:38:20.875Z,972.87
2019-02-23T06:39:11.316Z,972.83
2019-02-23T06:40:12.083Z,972.84
2019-02-23T06:41:11.314Z,972.86
2019-02-23T06:43:23.840Z,972.88
2019-02-23T06:44:22.477Z,972.81
2019-02-23T06:45:34.271Z,972.85
2019-02-23T06:47:48.007Z,972.88
2019-02-23T06:49:59.332Z,972.93
2019-02-23T06:52:13.119Z,972.88
2019-02-23T06:53:20.059Z,972.94
2019-02-23T06:54:10.256Z,972.96
2019-02-23T06:56:23.430Z,972.93
2019-02-23T06:57:23.262Z,973.01
2019-02-23T06:58:33.969Z,973.02
2019-02-23T06:59:31.893Z,973.08
2019-02-23T07:00:24.653Z,973.06
2019-02-23T07:01:23.221Z,973.10
2019-02-23T07:02:36.413Z,973.08
2019-02-23T07:03:23.198Z,973.09
2019-02-23T07:04:31.836Z,973.13
2019-02-23T07:05:23.793Z,973.13
2019-02-23T07:06:23.137Z,973.14
2019-02-23T07:07:25.789Z,973.16
2019-02-23T07:08:23.150Z,973.19
2019-02-23T07:09:23.084Z,973.19
2019-02-23T07:10:31.807Z,973.19
2019-02-23T07:11:23.088Z,973.17
2019-02-23T07:12:32.576Z,973.20
2019-02-23T07:13:23.073Z,973.27
2019-02-23T07:14:23.030Z,973.27
2019-02-23T07:15:35.618Z,973.33
2019-02-23T07:16:23.025Z,973.37
2019-02-23T07:17:23.023Z,973.42
2019-02-23T07:18:36.062Z,973.47
2019-02-23T07:20:44.117Z,973.45
2019-02-23T07:21:38.856Z,973.42
2019-02-23T07:22:48.558Z,973.41
2019-02-23T07:23:39.495Z,973.39
2019-02-23T07:24:37.798Z,973.43
2019-02-23T07:25:37.838Z,973.44
2019-02-23T07:26:37.820Z,973.36
2019-02-23T07:27:37.906Z,973.37
2019-02-23T07:28:37.763Z,973.36
2019-02-23T07:29:37.727Z,973.46
2019-02-23T07:32:02.237Z,973.52
2019-02-23T07:33:02.127Z,973.49
2019-02-23T07:34:02.005Z,973.54
2019-02-23T07:35:02.039Z,973.58
2019-02-23T07:36:02.026Z,973.60
2019-02-23T07:37:02.018Z,973.66
2019-02-23T07:38:01.976Z,973.65
2019-02-23T07:39:02.005Z,973.62
2019-02-23T07:40:01.956Z,973.64
2019-02-23T07:41:01.958Z,973.65
2019-02-23T07:42:01.973Z,973.61
2019-02-23T07:43:01.904Z,973.65
2019-02-23T07:44:03.544Z,973.67
2019-02-23T07:45:01.911Z,973.68
2019-02-23T07:46:01.954Z,973.70
2019-02-23T07:47:01.925Z,973.76
2019-02-23T07:48:01.921Z,973.79
2019-02-23T07:49:01.886Z,973.85
2019-02-23T07:50:01.854Z,973.89
2019-02-23T07:51:01.848Z,973.96
2019-02-23T07:52:01.889Z,974.00
2019-02-23T07:53:01.813Z,974.05
2019-02-23T07:54:01.870Z,974.05
2019-02-23T07:55:01.780Z,974.01
2019-02-23T07:56:01.794Z,974.11
2019-02-23T07:57:01.760Z,974.10
2019-02-23T07:58:01.765Z,974.15
2019-02-23T07:59:01.774Z,974.17
2019-02-23T08:00:01.771Z,974.18
2019-02-23T08:01:01.771Z,974.21
2019-02-23T08:02:01.758Z,974.24
2019-02-23T08:03:01.778Z,974.27
2019-02-23T08:04:01.840Z,974.20
2019-02-23T08:05:01.698Z,974.17
2019-02-23T08:06:01.648Z,974.17
2019-02-23T08:07:01.661Z,974.10
2019-02-23T08:08:01.635Z,974.10
2019-02-23T08:09:01.620Z,974.08
2019-02-23T08:10:01.627Z,974.10
2019-02-23T08:11:01.594Z,974.07
2019-02-23T08:12:01.591Z,974.08
2019-02-23T08:13:01.573Z,974.07
2019-02-23T08:14:01.578Z,974.09
2019-02-23T08:15:01.567Z,974.02
2019-02-23T08:16:01.541Z,974.05
2019-02-23T08:17:01.527Z,974.05
2019-02-23T08:18:01.519Z,974.05
2019-02-23T08:19:01.523Z,974.03
2019-02-23T08:20:01.497Z,974.04
2019-02-23T08:21:01.507Z,974.12
2019-02-23T08:22:01.482Z,974.13
2019-02-23T08:23:01.465Z,974.09
2019-02-23T08:24:01.469Z,974.07
2019-02-23T08:25:01.457Z,974.12
2019-02-23T08:26:01.426Z,974.11
2019-02-23T08:27:01.426Z,974.12
2019-02-23T08:28:01.406Z,974.04
2019-02-23T08:29:01.438Z,974.08
2019-02-23T08:30:01.415Z,974.08
2019-02-23T08:31:01.380Z,974.11
2019-02-23T08:32:01.359Z,974.24
2019-02-23T08:33:01.359Z,974.16
2019-02-23T08:34:01.345Z,974.17
2019-02-23T08:35:01.368Z,974.07
2019-02-23T08:36:01.338Z,974.16
2019-02-23T08:37:01.314Z,974.12
2019-02-23T08:38:01.299Z,974.14
2019-02-23T08:39:01.289Z,974.23
2019-02-23T08:40:01.282Z,974.19
2019-02-23T08:41:01.291Z,974.16
2019-02-23T08:42:01.269Z,974.18
2019-02-23T08:43:01.250Z,974.22
2019-02-23T08:44:01.240Z,974.20
2019-02-23T08:45:01.230Z,974.24
2019-02-23T08:46:01.215Z,974.24
2019-02-23T08:47:01.237Z,974.25
2019-02-23T08:48:01.187Z,974.29
2019-02-23T08:49:01.174Z,974.31
2019-02-23T08:50:01.167Z,974.30
2019-02-23T08:51:01.153Z,974.34
2019-02-23T08:52:02.054Z,974.31
2019-02-23T08:53:01.170Z,974.30
2019-02-23T08:54:01.129Z,974.33
2019-02-23T08:55:01.116Z,974.35
2019-02-23T08:56:02.072Z,974.35
2019-02-23T08:57:01.090Z,974.38
2019-02-23T08:58:01.097Z,974.44
2019-02-23T08:59:01.091Z,974.41
2019-02-23T09:00:01.064Z,974.40
2019-02-23T09:01:01.046Z,974.40
2019-02-23T09:02:01.042Z,974.40
2019-02-23T09:03:01.050Z,974.41
2019-02-23T09:04:01.024Z,974.41
2019-02-23T09:05:01.014Z,974.37
2019-02-23T09:06:00.990Z,974.39
2019-02-23T09:07:01.009Z,974.28
2019-02-23T09:08:01.032Z,974.34
2019-02-23T09:09:00.984Z,974.22
2019-02-23T09:10:00.953Z,974.19
2019-02-23T09:11:00.939Z,974.18
2019-02-23T09:12:00.933Z,974.21
2019-02-23T09:13:00.914Z,974.17
2019-02-23T09:14:11.924Z,974.19
2019-02-23T09:15:01.012Z,974.17
2019-02-23T09:16:01.040Z,974.18
2019-02-23T09:17:01.038Z,974.17
2019-02-23T09:18:00.908Z,974.14
2019-02-23T09:19:00.876Z,974.15
2019-02-23T09:20:00.842Z,974.13
2019-02-23T09:21:00.845Z,974.15
2019-02-23T09:22:00.817Z,974.04
2019-02-23T09:23:00.813Z,974.03
2019-02-23T09:24:00.794Z,974.07
2019-02-23T09:25:00.833Z,974.05
2019-02-23T09:26:00.776Z,974.06
2019-02-23T09:27:00.763Z,974.08
2019-02-23T09:28:00.746Z,974.05
2019-02-23T09:29:00.750Z,974.02
2019-02-23T09:30:00.771Z,973.97
2019-02-23T09:31:00.753Z,973.97
2019-02-23T09:32:01.805Z,973.99
2019-02-23T09:33:01.696Z,974.02
2019-02-23T09:34:00.690Z,974.03
2019-02-23T09:35:00.716Z,974.07
2019-02-23T09:36:12.081Z,974.05
2019-02-23T09:37:00.796Z,974.07
2019-02-23T09:39:18.092Z,974.13
2019-02-23T09:40:17.978Z,974.08
2019-02-23T09:41:17.951Z,974.13
2019-02-23T09:42:17.895Z,974.13
2019-02-23T09:43:18.008Z,974.11
2019-02-23T09:44:27.845Z,974.07
2019-02-23T09:45:50.482Z,974.04
2019-02-23T09:46:17.944Z,974.02
2019-02-23T09:47:17.895Z,973.99
2019-02-23T09:48:17.818Z,973.97
2019-02-23T09:49:17.856Z,973.91
2019-02-23T09:50:17.766Z,973.94
2019-02-23T09:51:17.704Z,973.90
2019-02-23T09:52:17.722Z,973.89
2019-02-23T09:53:17.716Z,973.89
2019-02-23T09:54:17.675Z,973.89
2019-02-23T09:55:18.605Z,973.87
2019-02-23T09:56:17.651Z,973.84
2019-02-23T09:57:17.654Z,973.89
2019-02-23T09:58:17.649Z,973.80
2019-02-23T09:59:17.611Z,973.91
2019-02-23T10:00:17.599Z,973.89
2019-02-23T10:01:17.589Z,973.86
2019-02-23T10:02:17.637Z,973.88
2019-02-23T10:03:17.568Z,973.93
2019-02-23T10:04:17.572Z,973.89
2019-02-23T10:05:17.609Z,973.90
2019-02-23T10:06:17.540Z,973.92
2019-02-23T10:07:17.522Z,973.96
2019-02-23T10:08:17.559Z,973.97
2019-02-23T10:09:17.499Z,974.00
2019-02-23T10:10:17.501Z,974.02
2019-02-23T10:11:17.490Z,974.01
2019-02-23T10:12:17.465Z,973.97
2019-02-23T10:13:17.494Z,973.97
2019-02-23T10:14:17.479Z,973.93
2019-02-23T10:15:17.435Z,973.95
2019-02-23T10:16:17.424Z,973.92
2019-02-23T10:17:17.442Z,973.95
2019-02-23T10:18:17.403Z,973.90
2019-02-23T10:19:17.454Z,973.88
2019-02-23T10:20:17.375Z,973.89
2019-02-23T10:21:17.366Z,973.88
2019-02-23T10:22:18.385Z,973.89
2019-02-23T10:23:22.170Z,973.90
2019-02-23T10:24:17.340Z,973.92
2019-02-23T10:25:17.407Z,973.93
2019-02-23T10:26:17.313Z,973.97
2019-02-23T10:27:17.310Z,973.98
2019-02-23T10:28:17.301Z,973.96
2019-02-23T10:29:17.325Z,973.89
2019-02-23T10:30:17.275Z,973.77
2019-02-23T10:31:18.048Z,973.83
2019-02-23T10:32:17.252Z,973.85
2019-02-23T10:33:17.257Z,973.81
2019-02-23T10:34:17.226Z,973.83
2019-02-23T10:35:17.219Z,973.84
2019-02-23T10:36:17.216Z,973.85
2019-02-23T10:37:17.192Z,973.83
2019-02-23T10:38:17.287Z,973.82
2019-02-23T10:39:17.180Z,973.76
2019-02-23T10:40:17.176Z,973.75
2019-02-23T10:41:17.169Z,973.75
2019-02-23T10:42:18.160Z,973.69
2019-02-23T10:43:17.129Z,973.67
2019-02-23T10:44:17.112Z,973.60
2019-02-23T10:45:17.110Z,973.55
2019-02-23T10:46:17.139Z,973.56
2019-02-23T10:47:17.124Z,973.53
2019-02-23T10:48:17.069Z,973.45
2019-02-23T10:49:17.062Z,973.42
2019-02-23T10:50:17.066Z,973.39
2019-02-23T10:51:18.083Z,973.42
2019-02-23T10:52:17.050Z,973.33
2019-02-23T10:53:17.007Z,973.37
2019-02-23T10:54:17.012Z,973.30
2019-02-23T10:55:16.991Z,973.36
2019-02-23T10:56:16.985Z,973.35
2019-02-23T10:57:17.002Z,973.35
2019-02-23T10:58:16.967Z,973.34
2019-02-23T10:59:16.967Z,973.38
2019-02-23T11:00:16.943Z,973.38
2019-02-23T11:01:16.923Z,973.36
2019-02-23T11:02:16.982Z,973.36
2019-02-23T11:03:16.907Z,973.38
2019-02-23T11:04:16.895Z,973.37
2019-02-23T11:05:16.886Z,973.38
2019-02-23T11:06:16.881Z,973.38
2019-02-23T11:07:16.856Z,973.34
2019-02-23T11:08:16.902Z,973.35
2019-02-23T11:09:16.831Z,973.37
2019-02-23T11:10:16.827Z,973.44
2019-02-23T11:11:16.824Z,973.37
2019-02-23T11:12:16.802Z,973.36
2019-02-23T11:13:16.788Z,973.35
2019-02-23T11:14:16.805Z,973.35
2019-02-23T11:15:26.411Z,973.31
2019-02-23T11:16:16.872Z,973.33
2019-02-23T11:17:16.935Z,973.32
2019-02-23T11:18:16.814Z,973.29
2019-02-23T11:19:16.931Z,973.31
2019-02-23T11:20:16.766Z,973.30
2019-02-23T11:21:16.698Z,973.25
2019-02-23T11:22:16.682Z,973.33
2019-02-23T11:23:16.732Z,973.32
2019-02-23T11:24:18.383Z,973.26
2019-02-23T11:25:16.672Z,973.23
2019-02-23T11:26:16.680Z,973.27
2019-02-23T11:27:16.660Z,973.20
2019-02-23T11:28:16.623Z,973.14
2019-02-23T11:29:16.629Z,973.14
2019-02-23T11:30:25.402Z,973.08
2019-02-23T11:32:28.057Z,973.06
2019-02-23T11:34:43.796Z,973.07
2019-02-23T11:35:43.689Z,973.10
2019-02-23T11:36:43.669Z,973.10
2019-02-23T11:38:54.995Z,973.08
2019-02-23T11:39:54.896Z,973.07
2019-02-23T11:40:54.867Z,973.06
2019-02-23T11:41:54.836Z,973.06
2019-02-23T11:42:54.915Z,973.03
2019-02-23T11:43:54.765Z,973.04
2019-02-23T11:44:54.712Z,973.03
2019-02-23T11:45:54.736Z,973.04
2019-02-23T11:47:00.721Z,973.08
2019-02-23T11:47:55.734Z,973.08
2019-02-23T11:48:54.727Z,973.09
2019-02-23T11:49:54.664Z,973.10
2019-02-23T11:50:54.664Z,973.07
2019-02-23T11:51:54.635Z,973.13
2019-02-23T11:52:54.628Z,973.09
2019-02-23T11:53:55.402Z,973.04
2019-02-23T11:54:54.606Z,973.07
2019-02-23T11:55:54.589Z,973.07
2019-02-23T11:56:54.578Z,973.05
2019-02-23T11:57:54.574Z,973.06
2019-02-23T11:58:54.557Z,972.99
2019-02-23T11:59:54.551Z,973.03
2019-02-23T12:00:54.640Z,972.99
2019-02-23T12:01:54.530Z,973.01
2019-02-23T12:02:54.506Z,972.97
2019-02-23T12:03:54.497Z,972.98
2019-02-23T12:04:54.508Z,972.99
2019-02-23T12:05:54.481Z,972.97
2019-02-23T12:06:54.469Z,973.02
2019-02-23T12:07:54.487Z,973.05
2019-02-23T12:08:54.447Z,973.17
2019-02-23T12:09:54.479Z,973.11
2019-02-23T12:10:54.469Z,973.07
2019-02-23T12:11:54.413Z,973.08
2019-02-23T12:12:54.404Z,973.03
2019-02-23T12:13:54.415Z,973.05
2019-02-23T12:14:54.398Z,973.03
2019-02-23T12:15:54.404Z,973.03
2019-02-23T12:16:54.359Z,972.93
2019-02-23T12:17:54.347Z,972.95
2019-02-23T12:18:54.360Z,972.78
2019-02-23T12:19:55.405Z,972.81
2019-02-23T12:20:54.313Z,972.75
2019-02-23T12:21:54.330Z,972.75
2019-02-23T12:22:54.290Z,972.71
2019-02-23T12:23:54.286Z,972.70
2019-02-23T12:24:54.266Z,972.64
2019-02-23T12:25:54.249Z,972.59
2019-02-23T12:26:54.246Z,972.55
2019-02-23T12:27:54.253Z,972.56
2019-02-23T12:28:54.254Z,972.55
2019-02-23T12:29:54.218Z,972.56
2019-02-23T12:30:54.210Z,972.50
2019-02-23T12:31:54.189Z,972.47
2019-02-23T12:32:54.194Z,972.41
2019-02-23T12:33:54.190Z,972.35
2019-02-23T12:34:54.161Z,972.35
2019-02-23T12:35:54.152Z,972.32
2019-02-23T12:36:54.144Z,972.31
2019-02-23T12:37:54.182Z,972.26
2019-02-23T12:38:54.110Z,972.21
2019-02-23T12:39:55.031Z,972.20
2019-02-23T12:40:55.007Z,972.13
2019-02-23T12:41:54.088Z,972.14
2019-02-23T12:42:54.075Z,972.16
2019-02-23T12:43:54.051Z,972.08
2019-02-23T12:44:54.073Z,972.02
2019-02-23T12:45:54.057Z,972.10
2019-02-23T12:46:54.021Z,972.10
2019-02-23T12:47:54.016Z,972.17
2019-02-23T12:48:54.000Z,972.17
2019-02-23T12:49:53.983Z,972.21
2019-02-23T12:50:53.982Z,972.17
2019-02-23T12:51:54.037Z,972.21
2019-02-23T12:52:53.951Z,972.16
2019-02-23T12:53:53.956Z,972.13
2019-02-23T12:54:53.935Z,972.09
2019-02-23T12:55:53.925Z,972.06
2019-02-23T12:56:53.914Z,972.00
2019-02-23T12:57:53.918Z,972.01